BAW4566 EGKK-EDDL
Flight info
| Callsign | BAW4566 |
|---|---|
| Flight time | 0h 54m |
| Altitude | 23000 |
| Route | ODVIK DCT DVR L9 KONAN/N0408F330 DCT KOK UL607 SPI Y862 KENUM M170 NVO T857 BIKMU BIKMU1A |
| Aircraft | A20N/M-SDE2E3FGHIRWXY/LB1 |
Departure
| Time | 2026-05-04 19:46 |
|---|---|
| Airport | London Gatwick Airport (EGKK) |
Arrival
| Time | 2026-05-04 20:41 |
|---|---|
| Airport | Düsseldorf Airport (EDDL) |
| Time | Latitude | Longitude | Altitude | Speed | Heading |
|---|---|---|---|---|---|
| 2026-05-04 19:17 | 51.15361 | -0.16333 | 211 ft | 0 kts | 354° |
| 2026-05-04 19:19 | 51.15331 | -0.16322 | 211 ft | 6 kts | 308° |
| 2026-05-04 19:20 | 51.15324 | -0.16292 | 208 ft | 0 kts | 260° |
| 2026-05-04 19:33 | 51.15319 | -0.16336 | 216 ft | 8 kts | 260° |
| 2026-05-04 19:33 | 51.15306 | -0.16458 | 206 ft | 15 kts | 261° |
| 2026-05-04 19:33 | 51.15295 | -0.16570 | 204 ft | 0 kts | 259° |
| 2026-05-04 19:35 | 51.15295 | -0.16571 | 204 ft | 0 kts | 259° |
| 2026-05-04 19:35 | 51.15289 | -0.16612 | 201 ft | 7 kts | 258° |
| 2026-05-04 19:35 | 51.15319 | -0.16673 | 204 ft | 9 kts | 339° |
| 2026-05-04 19:35 | 51.15380 | -0.16742 | 206 ft | 12 kts | 289° |
| 2026-05-04 19:36 | 51.15366 | -0.16900 | 204 ft | 17 kts | 257° |
| 2026-05-04 19:36 | 51.15337 | -0.17115 | 203 ft | 22 kts | 258° |
| 2026-05-04 19:36 | 51.15303 | -0.17383 | 213 ft | 27 kts | 263° |
| 2026-05-04 19:36 | 51.15266 | -0.17692 | 206 ft | 30 kts | 255° |
| 2026-05-04 19:37 | 51.15227 | -0.17978 | 213 ft | 18 kts | 258° |
| 2026-05-04 19:37 | 51.15222 | -0.18013 | 208 ft | 5 kts | 258° |
| 2026-05-04 19:37 | 51.15210 | -0.18106 | 208 ft | 12 kts | 258° |
| 2026-05-04 19:37 | 51.15188 | -0.18269 | 211 ft | 18 kts | 259° |
| 2026-05-04 19:38 | 51.15161 | -0.18499 | 210 ft | 24 kts | 259° |
| 2026-05-04 19:38 | 51.15125 | -0.18767 | 208 ft | 16 kts | 258° |
| 2026-05-04 19:38 | 51.15097 | -0.18971 | 211 ft | 21 kts | 257° |
| 2026-05-04 19:38 | 51.15072 | -0.19157 | 214 ft | 18 kts | 259° |
| 2026-05-04 19:39 | 51.15051 | -0.19329 | 209 ft | 19 kts | 259° |
| 2026-05-04 19:39 | 51.15018 | -0.19555 | 211 ft | 23 kts | 253° |
| 2026-05-04 19:39 | 51.14979 | -0.19830 | 206 ft | 28 kts | 258° |
| 2026-05-04 19:39 | 51.14934 | -0.20160 | 206 ft | 33 kts | 257° |
| 2026-05-04 19:40 | 51.14881 | -0.20533 | 207 ft | 36 kts | 257° |
| 2026-05-04 19:40 | 51.14842 | -0.20821 | 202 ft | 0 kts | 257° |
| 2026-05-04 19:40 | 51.14838 | -0.20855 | 207 ft | 7 kts | 257° |
| 2026-05-04 19:40 | 51.14822 | -0.20961 | 206 ft | 13 kts | 257° |
| 2026-05-04 19:41 | 51.14797 | -0.21132 | 212 ft | 19 kts | 257° |
| 2026-05-04 19:41 | 51.14762 | -0.21343 | 201 ft | 6 kts | 257° |
| 2026-05-04 19:41 | 51.14756 | -0.21366 | 204 ft | 5 kts | 244° |
| 2026-05-04 19:41 | 51.14744 | -0.21387 | 206 ft | 0 kts | 221° |
| 2026-05-04 19:42 | 51.14741 | -0.21390 | 212 ft | 0 kts | 213° |
| 2026-05-04 19:42 | 51.14723 | -0.21399 | 205 ft | 4 kts | 181° |
| 2026-05-04 19:42 | 51.14722 | -0.21399 | 205 ft | 0 kts | 177° |
| 2026-05-04 19:44 | 51.14690 | -0.21391 | 206 ft | 8 kts | 165° |
| 2026-05-04 19:44 | 51.14675 | -0.21378 | 204 ft | 5 kts | 146° |
| 2026-05-04 19:44 | 51.14630 | -0.21329 | 204 ft | 0 kts | 163° |
| 2026-05-04 19:44 | 51.14629 | -0.21329 | 204 ft | 1 kts | 163° |
| 2026-05-04 19:45 | 51.14628 | -0.21329 | 203 ft | 0 kts | 163° |
| 2026-05-04 19:45 | 51.14627 | -0.21328 | 203 ft | 2 kts | 163° |
| 2026-05-04 19:45 | 51.14576 | -0.21303 | 203 ft | 12 kts | 160° |
| 2026-05-04 19:45 | 51.14520 | -0.21187 | 209 ft | 15 kts | 95° |
| 2026-05-04 19:46 | 51.14544 | -0.20973 | 211 ft | 43 kts | 78° |
| 2026-05-04 19:46 | 51.14702 | -0.19877 | 208 ft | 152 kts | 76° |
| 2026-05-04 19:46 | 51.14938 | -0.18063 | 1099 ft | 171 kts | 78° |
| 2026-05-04 19:46 | 51.15194 | -0.16153 | 2411 ft | 183 kts | 76° |
| 2026-05-04 19:47 | 51.15504 | -0.14046 | 3254 ft | 209 kts | 76° |
| 2026-05-04 19:47 | 51.15864 | -0.11565 | 3734 ft | 249 kts | 76° |
| 2026-05-04 19:47 | 51.16247 | -0.08805 | 3957 ft | 259 kts | 77° |
| 2026-05-04 19:47 | 51.16623 | -0.06004 | 3999 ft | 258 kts | 77° |
| 2026-05-04 19:48 | 51.16882 | -0.03172 | 4001 ft | 259 kts | 86° |
| 2026-05-04 19:48 | 51.16849 | -0.00299 | 4033 ft | 261 kts | 91° |
| 2026-05-04 19:48 | 51.16784 | 0.02607 | 4499 ft | 264 kts | 90° |
| 2026-05-04 19:48 | 51.16729 | 0.05569 | 5573 ft | 276 kts | 91° |
| 2026-05-04 19:49 | 51.16674 | 0.08704 | 6451 ft | 302 kts | 91° |
| 2026-05-04 19:49 | 51.16613 | 0.12219 | 7381 ft | 321 kts | 91° |
| 2026-05-04 19:49 | 51.16547 | 0.15896 | 8233 ft | 344 kts | 91° |
| 2026-05-04 19:49 | 51.16521 | 0.19836 | 8900 ft | 368 kts | 90° |
| 2026-05-04 19:50 | 51.16540 | 0.23982 | 9895 ft | 377 kts | 90° |
| 2026-05-04 19:50 | 51.16559 | 0.28183 | 11011 ft | 381 kts | 90° |
| 2026-05-04 19:50 | 51.16571 | 0.32422 | 12117 ft | 386 kts | 90° |
| 2026-05-04 19:50 | 51.16578 | 0.36707 | 12888 ft | 400 kts | 90° |
| 2026-05-04 19:51 | 51.16583 | 0.41225 | 13473 ft | 414 kts | 90° |
| 2026-05-04 19:51 | 51.16585 | 0.45856 | 14274 ft | 421 kts | 90° |
| 2026-05-04 19:51 | 51.16587 | 0.50545 | 15113 ft | 425 kts | 90° |
| 2026-05-04 19:51 | 51.16586 | 0.55266 | 15944 ft | 430 kts | 90° |
| 2026-05-04 19:52 | 51.16582 | 0.60074 | 16656 ft | 437 kts | 91° |
| 2026-05-04 19:52 | 51.16577 | 0.64933 | 17482 ft | 441 kts | 91° |
| 2026-05-04 19:52 | 51.16568 | 0.69855 | 18173 ft | 448 kts | 91° |
| 2026-05-04 19:52 | 51.16558 | 0.74864 | 18841 ft | 453 kts | 91° |
| 2026-05-04 19:53 | 51.16546 | 0.79905 | 19479 ft | 458 kts | 91° |
| 2026-05-04 19:53 | 51.16532 | 0.85013 | 20108 ft | 463 kts | 91° |
| 2026-05-04 19:53 | 51.16516 | 0.90173 | 20719 ft | 468 kts | 91° |
| 2026-05-04 19:53 | 51.16496 | 0.95386 | 21325 ft | 473 kts | 91° |
| 2026-05-04 19:54 | 51.16475 | 1.00659 | 21850 ft | 479 kts | 92° |
| 2026-05-04 19:54 | 51.16453 | 1.05993 | 22395 ft | 484 kts | 91° |
| 2026-05-04 19:54 | 51.16425 | 1.11363 | 23004 ft | 487 kts | 92° |
| 2026-05-04 19:54 | 51.16394 | 1.16785 | 23477 ft | 492 kts | 91° |
| 2026-05-04 19:55 | 51.16360 | 1.22248 | 23966 ft | 493 kts | 92° |
| 2026-05-04 19:55 | 51.16328 | 1.27588 | 24293 ft | 497 kts | 92° |
| 2026-05-04 19:55 | 51.16290 | 1.33042 | 24628 ft | 497 kts | 92° |
| 2026-05-04 19:55 | 51.16143 | 1.38549 | 24935 ft | 497 kts | 96° |
| 2026-05-04 19:56 | 51.15870 | 1.44043 | 25242 ft | 498 kts | 96° |
| 2026-05-04 19:56 | 51.15609 | 1.49538 | 25555 ft | 498 kts | 96° |
| 2026-05-04 19:56 | 51.15348 | 1.55049 | 25854 ft | 498 kts | 96° |
| 2026-05-04 19:56 | 51.15081 | 1.60561 | 26242 ft | 496 kts | 96° |
| 2026-05-04 19:57 | 51.14872 | 1.64836 | 26553 ft | 495 kts | 96° |
| 2026-05-04 19:57 | 51.14602 | 1.70317 | 26894 ft | 495 kts | 96° |
| 2026-05-04 19:57 | 51.14330 | 1.75757 | 27312 ft | 492 kts | 96° |
| 2026-05-04 19:57 | 51.14056 | 1.81195 | 27649 ft | 492 kts | 96° |
| 2026-05-04 19:58 | 51.13779 | 1.86615 | 27993 ft | 489 kts | 96° |
| 2026-05-04 19:58 | 51.13500 | 1.92010 | 27995 ft | 488 kts | 96° |
| 2026-05-04 19:58 | 51.13221 | 1.97383 | 27997 ft | 488 kts | 96° |
| 2026-05-04 19:58 | 51.12937 | 2.02763 | 27997 ft | 487 kts | 96° |
| 2026-05-04 19:59 | 51.12656 | 2.08072 | 27997 ft | 488 kts | 96° |
| 2026-05-04 19:59 | 51.12368 | 2.13456 | 27995 ft | 487 kts | 96° |
| 2026-05-04 19:59 | 51.12079 | 2.18826 | 27994 ft | 488 kts | 96° |
| 2026-05-04 19:59 | 51.11786 | 2.24215 | 27994 ft | 487 kts | 96° |
| 2026-05-04 20:00 | 51.11491 | 2.29589 | 27987 ft | 487 kts | 96° |
| 2026-05-04 20:00 | 51.11194 | 2.34974 | 27989 ft | 488 kts | 97° |
| 2026-05-04 20:00 | 51.10894 | 2.40350 | 27986 ft | 486 kts | 96° |
| 2026-05-04 20:00 | 51.10593 | 2.45708 | 27987 ft | 486 kts | 97° |
| 2026-05-04 20:01 | 51.10290 | 2.51063 | 27980 ft | 486 kts | 97° |
| 2026-05-04 20:01 | 51.09983 | 2.56420 | 27980 ft | 486 kts | 97° |
| 2026-05-04 20:01 | 51.09664 | 2.61770 | 27980 ft | 486 kts | 98° |
| 2026-05-04 20:01 | 51.09096 | 2.67048 | 27978 ft | 484 kts | 104° |
| 2026-05-04 20:02 | 51.08338 | 2.71529 | 27979 ft | 483 kts | 108° |
| 2026-05-04 20:02 | 51.07397 | 2.76668 | 27977 ft | 483 kts | 108° |
| 2026-05-04 20:02 | 51.06462 | 2.81813 | 27996 ft | 483 kts | 108° |
| 2026-05-04 20:02 | 51.05530 | 2.86941 | 27994 ft | 483 kts | 108° |
| 2026-05-04 20:03 | 51.04597 | 2.92063 | 27993 ft | 483 kts | 108° |
| 2026-05-04 20:03 | 51.03661 | 2.97190 | 27992 ft | 483 kts | 108° |
| 2026-05-04 20:03 | 51.02722 | 3.02312 | 27991 ft | 483 kts | 108° |
| 2026-05-04 20:03 | 51.01781 | 3.07434 | 27983 ft | 483 kts | 108° |
| 2026-05-04 20:04 | 51.00838 | 3.12551 | 27981 ft | 483 kts | 108° |
| 2026-05-04 20:04 | 50.99890 | 3.17678 | 27977 ft | 483 kts | 108° |
| 2026-05-04 20:04 | 50.98943 | 3.22787 | 27971 ft | 483 kts | 108° |
| 2026-05-04 20:04 | 50.97992 | 3.27903 | 27967 ft | 483 kts | 108° |
| 2026-05-04 20:05 | 50.97040 | 3.33011 | 27962 ft | 482 kts | 107° |
| 2026-05-04 20:05 | 50.96088 | 3.38103 | 27964 ft | 482 kts | 108° |
| 2026-05-04 20:05 | 50.95133 | 3.43201 | 27962 ft | 482 kts | 108° |
| 2026-05-04 20:05 | 50.94172 | 3.48304 | 27961 ft | 482 kts | 108° |
| 2026-05-04 20:06 | 50.93212 | 3.53396 | 27962 ft | 482 kts | 108° |
| 2026-05-04 20:06 | 50.92251 | 3.58482 | 27959 ft | 482 kts | 108° |
| 2026-05-04 20:06 | 50.91289 | 3.63560 | 27958 ft | 482 kts | 108° |
| 2026-05-04 20:06 | 50.90316 | 3.68658 | 27959 ft | 482 kts | 108° |
| 2026-05-04 20:07 | 50.89348 | 3.73682 | 27955 ft | 482 kts | 108° |
| 2026-05-04 20:07 | 50.88401 | 3.78573 | 27951 ft | 483 kts | 108° |
| 2026-05-04 20:07 | 50.87415 | 3.83657 | 27952 ft | 483 kts | 108° |
| 2026-05-04 20:07 | 50.86427 | 3.88750 | 27951 ft | 483 kts | 108° |
| 2026-05-04 20:08 | 50.85450 | 3.93768 | 27954 ft | 483 kts | 108° |
| 2026-05-04 20:08 | 50.84458 | 3.98856 | 27953 ft | 483 kts | 108° |
| 2026-05-04 20:08 | 50.83465 | 4.03933 | 27952 ft | 483 kts | 108° |
| 2026-05-04 20:08 | 50.82473 | 4.08996 | 27951 ft | 483 kts | 108° |
| 2026-05-04 20:09 | 50.81472 | 4.14085 | 27953 ft | 483 kts | 108° |
| 2026-05-04 20:09 | 50.80473 | 4.19153 | 27958 ft | 483 kts | 108° |
| 2026-05-04 20:09 | 50.79469 | 4.24237 | 27944 ft | 487 kts | 109° |
| 2026-05-04 20:09 | 50.78454 | 4.29357 | 27945 ft | 487 kts | 109° |
| 2026-05-04 20:10 | 50.77441 | 4.34455 | 27954 ft | 487 kts | 109° |
| 2026-05-04 20:10 | 50.76426 | 4.39552 | 27943 ft | 487 kts | 109° |
| 2026-05-04 20:10 | 50.75751 | 4.42932 | 27951 ft | 487 kts | 109° |
| 2026-05-04 20:10 | 50.74613 | 4.48619 | 27942 ft | 487 kts | 109° |
| 2026-05-04 20:11 | 50.73775 | 4.53802 | 27946 ft | 488 kts | 100° |
| 2026-05-04 20:11 | 50.73575 | 4.59170 | 27949 ft | 490 kts | 89° |
| 2026-05-04 20:11 | 50.73822 | 4.64483 | 27951 ft | 491 kts | 86° |
| 2026-05-04 20:11 | 50.74111 | 4.69868 | 27944 ft | 496 kts | 87° |
| 2026-05-04 20:12 | 50.74403 | 4.75311 | 27947 ft | 496 kts | 87° |
| 2026-05-04 20:12 | 50.74686 | 4.80740 | 27947 ft | 496 kts | 87° |
| 2026-05-04 20:12 | 50.74959 | 4.86165 | 27956 ft | 496 kts | 88° |
| 2026-05-04 20:12 | 50.75225 | 4.91600 | 27944 ft | 496 kts | 88° |
| 2026-05-04 20:13 | 50.75487 | 4.97030 | 27945 ft | 496 kts | 88° |
| 2026-05-04 20:13 | 50.75747 | 5.02473 | 27944 ft | 496 kts | 88° |
| 2026-05-04 20:13 | 50.76003 | 5.07900 | 27952 ft | 496 kts | 88° |
| 2026-05-04 20:13 | 50.76257 | 5.13337 | 27955 ft | 496 kts | 88° |
| 2026-05-04 20:14 | 50.76509 | 5.18778 | 27939 ft | 499 kts | 88° |
| 2026-05-04 20:14 | 50.76759 | 5.24247 | 27949 ft | 499 kts | 88° |
| 2026-05-04 20:14 | 50.76924 | 5.27865 | 27945 ft | 498 kts | 88° |
| 2026-05-04 20:14 | 50.77171 | 5.33333 | 27942 ft | 498 kts | 88° |
| 2026-05-04 20:15 | 50.77414 | 5.38792 | 27941 ft | 498 kts | 88° |
| 2026-05-04 20:15 | 50.77733 | 5.46038 | 27946 ft | 499 kts | 89° |
| 2026-05-04 20:15 | 50.77970 | 5.51507 | 27945 ft | 499 kts | 89° |
| 2026-05-04 20:15 | 50.78205 | 5.56971 | 27941 ft | 499 kts | 89° |
| 2026-05-04 20:16 | 50.78359 | 5.60593 | 27951 ft | 498 kts | 89° |
| 2026-05-04 20:16 | 50.78593 | 5.66069 | 27938 ft | 502 kts | 90° |
| 2026-05-04 20:16 | 50.78805 | 5.71105 | 27946 ft | 502 kts | 90° |
| 2026-05-04 20:16 | 50.79022 | 5.76330 | 27947 ft | 502 kts | 90° |
| 2026-05-04 20:17 | 50.79247 | 5.81842 | 27944 ft | 502 kts | 90° |
| 2026-05-04 20:17 | 50.79469 | 5.87338 | 27945 ft | 501 kts | 90° |
| 2026-05-04 20:17 | 50.79688 | 5.92842 | 27945 ft | 501 kts | 90° |
| 2026-05-04 20:17 | 50.79905 | 5.98348 | 27945 ft | 501 kts | 90° |
| 2026-05-04 20:18 | 50.80119 | 6.03850 | 27945 ft | 501 kts | 90° |
| 2026-05-04 20:18 | 50.80331 | 6.09354 | 27947 ft | 501 kts | 90° |
| 2026-05-04 20:18 | 50.80542 | 6.14882 | 27943 ft | 504 kts | 90° |
| 2026-05-04 20:18 | 50.80749 | 6.20411 | 27947 ft | 504 kts | 90° |
| 2026-05-04 20:19 | 50.80870 | 6.23678 | 27945 ft | 503 kts | 90° |
| 2026-05-04 20:19 | 50.81085 | 6.29201 | 27944 ft | 504 kts | 89° |
| 2026-05-04 20:19 | 50.81725 | 6.34621 | 27946 ft | 510 kts | 77° |
| 2026-05-04 20:19 | 50.83030 | 6.39871 | 27946 ft | 516 kts | 65° |
| 2026-05-04 20:20 | 50.84949 | 6.44682 | 27937 ft | 519 kts | 54° |
| 2026-05-04 20:20 | 50.87368 | 6.48880 | 27454 ft | 516 kts | 44° |
| 2026-05-04 20:20 | 50.90099 | 6.52529 | 26405 ft | 512 kts | 39° |
| 2026-05-04 20:20 | 50.92913 | 6.55987 | 25091 ft | 509 kts | 38° |
| 2026-05-04 20:21 | 50.95340 | 6.58972 | 23848 ft | 508 kts | 39° |
| 2026-05-04 20:21 | 50.98109 | 6.62401 | 22461 ft | 501 kts | 36° |
| 2026-05-04 20:21 | 51.04310 | 6.66775 | 20636 ft | 471 kts | 11° |
| 2026-05-04 20:22 | 51.07474 | 6.67373 | 20279 ft | 446 kts | 359° |
| 2026-05-04 20:22 | 51.10463 | 6.67281 | 20036 ft | 424 kts | 1° |
| 2026-05-04 20:22 | 51.13310 | 6.68035 | 19708 ft | 408 kts | 16° |
| 2026-05-04 20:22 | 51.15870 | 6.69890 | 19132 ft | 400 kts | 31° |
| 2026-05-04 20:23 | 51.18215 | 6.72238 | 18446 ft | 395 kts | 33° |
| 2026-05-04 20:23 | 51.20534 | 6.74546 | 17693 ft | 392 kts | 31° |
| 2026-05-04 20:23 | 51.22891 | 6.76698 | 16950 ft | 388 kts | 29° |
| 2026-05-04 20:23 | 51.25258 | 6.78700 | 16235 ft | 383 kts | 27° |
| 2026-05-04 20:24 | 51.27628 | 6.80611 | 15535 ft | 380 kts | 26° |
| 2026-05-04 20:24 | 51.29985 | 6.82472 | 14849 ft | 376 kts | 26° |
| 2026-05-04 20:24 | 51.32319 | 6.84305 | 14183 ft | 372 kts | 26° |
| 2026-05-04 20:24 | 51.34632 | 6.86120 | 13503 ft | 369 kts | 26° |
| 2026-05-04 20:25 | 51.36905 | 6.87908 | 12793 ft | 365 kts | 26° |
| 2026-05-04 20:25 | 51.38798 | 6.89399 | 12328 ft | 358 kts | 27° |
| 2026-05-04 20:25 | 51.41014 | 6.91150 | 11672 ft | 354 kts | 27° |
| 2026-05-04 20:25 | 51.43198 | 6.92879 | 11197 ft | 348 kts | 27° |
| 2026-05-04 20:26 | 51.45392 | 6.94618 | 11012 ft | 353 kts | 27° |
| 2026-05-04 20:26 | 51.47552 | 6.96439 | 10947 ft | 350 kts | 33° |
| 2026-05-04 20:26 | 51.49468 | 6.98852 | 10941 ft | 350 kts | 45° |
| 2026-05-04 20:26 | 51.51015 | 7.01766 | 10871 ft | 346 kts | 54° |
| 2026-05-04 20:27 | 51.52446 | 7.04833 | 10703 ft | 337 kts | 54° |
| 2026-05-04 20:27 | 51.53616 | 7.07328 | 10582 ft | 324 kts | 54° |
| 2026-05-04 20:27 | 51.54914 | 7.10091 | 10449 ft | 309 kts | 54° |
| 2026-05-04 20:27 | 51.56174 | 7.12777 | 10319 ft | 294 kts | 54° |
| 2026-05-04 20:28 | 51.57374 | 7.15336 | 10198 ft | 280 kts | 54° |
| 2026-05-04 20:28 | 51.58531 | 7.17807 | 9905 ft | 274 kts | 54° |
| 2026-05-04 20:28 | 51.59667 | 7.20243 | 9604 ft | 268 kts | 54° |
| 2026-05-04 20:28 | 51.60773 | 7.22616 | 9300 ft | 262 kts | 54° |
| 2026-05-04 20:29 | 51.61848 | 7.24923 | 9082 ft | 255 kts | 54° |
| 2026-05-04 20:29 | 51.62830 | 7.27304 | 8527 ft | 259 kts | 69° |
| 2026-05-04 20:29 | 51.63169 | 7.30125 | 8113 ft | 256 kts | 91° |
| 2026-05-04 20:29 | 51.63169 | 7.32102 | 7874 ft | 255 kts | 93° |
| 2026-05-04 20:30 | 51.63084 | 7.35031 | 7513 ft | 251 kts | 105° |
| 2026-05-04 20:30 | 51.62362 | 7.37470 | 7168 ft | 244 kts | 129° |
| 2026-05-04 20:30 | 51.61274 | 7.39582 | 6814 ft | 239 kts | 146° |
| 2026-05-04 20:30 | 51.59809 | 7.40591 | 6479 ft | 231 kts | 176° |
| 2026-05-04 20:31 | 51.58240 | 7.40346 | 6132 ft | 227 kts | 203° |
| 2026-05-04 20:31 | 51.57015 | 7.38831 | 5798 ft | 225 kts | 232° |
| 2026-05-04 20:31 | 51.56211 | 7.36676 | 5464 ft | 226 kts | 246° |
| 2026-05-04 20:31 | 51.55677 | 7.34299 | 5117 ft | 225 kts | 245° |
| 2026-05-04 20:32 | 51.54878 | 7.32151 | 4803 ft | 224 kts | 234° |
| 2026-05-04 20:32 | 51.53963 | 7.30132 | 4480 ft | 223 kts | 232° |
| 2026-05-04 20:32 | 51.53132 | 7.28370 | 4172 ft | 224 kts | 232° |
| 2026-05-04 20:32 | 51.52179 | 7.26350 | 3843 ft | 224 kts | 232° |
| 2026-05-04 20:33 | 51.51259 | 7.24398 | 3542 ft | 224 kts | 232° |
| 2026-05-04 20:33 | 51.50320 | 7.22403 | 3227 ft | 224 kts | 232° |
| 2026-05-04 20:33 | 51.49381 | 7.20409 | 2987 ft | 221 kts | 232° |
| 2026-05-04 20:33 | 51.48442 | 7.18421 | 2956 ft | 226 kts | 232° |
| 2026-05-04 20:34 | 51.47517 | 7.16460 | 2952 ft | 224 kts | 232° |
| 2026-05-04 20:34 | 51.46648 | 7.14618 | 2950 ft | 223 kts | 232° |
| 2026-05-04 20:34 | 51.45737 | 7.12687 | 2949 ft | 210 kts | 232° |
| 2026-05-04 20:34 | 51.44887 | 7.10887 | 2944 ft | 197 kts | 232° |
| 2026-05-04 20:35 | 51.44084 | 7.09186 | 2941 ft | 186 kts | 231° |
| 2026-05-04 20:35 | 51.43325 | 7.07583 | 2937 ft | 175 kts | 231° |
| 2026-05-04 20:35 | 51.42612 | 7.06073 | 2940 ft | 164 kts | 231° |
| 2026-05-04 20:35 | 51.41937 | 7.04647 | 2809 ft | 161 kts | 231° |
| 2026-05-04 20:36 | 51.41246 | 7.03187 | 2521 ft | 169 kts | 231° |
| 2026-05-04 20:36 | 51.40529 | 7.01674 | 2344 ft | 171 kts | 231° |
| 2026-05-04 20:36 | 51.39834 | 7.00203 | 2115 ft | 158 kts | 231° |
| 2026-05-04 20:36 | 51.39187 | 6.98832 | 1763 ft | 152 kts | 231° |
| 2026-05-04 20:37 | 51.38632 | 6.97577 | 1768 ft | 127 kts | 233° |
| 2026-05-04 20:37 | 51.38185 | 6.96452 | 1700 ft | 113 kts | 236° |
| 2026-05-04 20:37 | 51.37792 | 6.95400 | 1560 ft | 111 kts | 236° |
| 2026-05-04 20:37 | 51.37342 | 6.94305 | 1643 ft | 127 kts | 233° |
| 2026-05-04 20:38 | 51.36783 | 6.93070 | 2012 ft | 152 kts | 228° |
| 2026-05-04 20:38 | 51.35977 | 6.91658 | 2356 ft | 190 kts | 229° |
| 2026-05-04 20:38 | 51.35068 | 6.89965 | 2334 ft | 191 kts | 230° |
| 2026-05-04 20:38 | 51.34272 | 6.88395 | 1966 ft | 175 kts | 231° |
| 2026-05-04 20:39 | 51.33588 | 6.86884 | 1701 ft | 163 kts | 232° |
| 2026-05-04 20:39 | 51.32893 | 6.85490 | 1420 ft | 157 kts | 227° |
| 2026-05-04 20:39 | 51.32229 | 6.84093 | 1099 ft | 158 kts | 231° |
| 2026-05-04 20:39 | 51.31568 | 6.82697 | 793 ft | 155 kts | 231° |
| 2026-05-04 20:40 | 51.30912 | 6.81373 | 561 ft | 149 kts | 229° |
| 2026-05-04 20:40 | 51.30322 | 6.80103 | 467 ft | 139 kts | 232° |
| 2026-05-04 20:40 | 51.29731 | 6.78898 | 304 ft | 138 kts | 231° |
| 2026-05-04 20:40 | 51.29154 | 6.77690 | 139 ft | 132 kts | 230° |
| 2026-05-04 20:41 | 51.28794 | 6.76955 | 125 ft | 36 kts | 233° |
| 2026-05-04 20:41 | 51.28644 | 6.76646 | 127 ft | 20 kts | 219° |
| 2026-05-04 20:41 | 51.28616 | 6.76641 | 127 ft | 6 kts | 164° |
| 2026-05-04 20:41 | 51.28570 | 6.76696 | 127 ft | 11 kts | 142° |
| 2026-05-04 20:42 | 51.28501 | 6.76757 | 129 ft | 11 kts | 175° |
| 2026-05-04 20:42 | 51.28470 | 6.76732 | 125 ft | 0 kts | 229° |
| 2026-05-04 20:43 | 51.28469 | 6.76730 | 125 ft | 2 kts | 229° |
| 2026-05-04 20:44 | 51.28444 | 6.76678 | 125 ft | 9 kts | 233° |
| 2026-05-04 20:44 | 51.28394 | 6.76576 | 123 ft | 13 kts | 232° |
| 2026-05-04 20:44 | 51.28333 | 6.76447 | 120 ft | 16 kts | 232° |
| 2026-05-04 20:44 | 51.28282 | 6.76340 | 122 ft | 0 kts | 232° |
| 2026-05-04 20:45 | 51.28278 | 6.76332 | 120 ft | 2 kts | 232° |
| 2026-05-04 20:45 | 51.28267 | 6.76309 | 122 ft | 3 kts | 232° |
| 2026-05-04 20:45 | 51.28250 | 6.76274 | 124 ft | 5 kts | 232° |
| 2026-05-04 20:45 | 51.28213 | 6.76197 | 125 ft | 12 kts | 232° |
| 2026-05-04 20:46 | 51.28159 | 6.76087 | 124 ft | 7 kts | 231° |
| 2026-05-04 20:46 | 51.28126 | 6.76036 | 124 ft | 0 kts | 197° |
| 2026-05-04 20:46 | 51.28105 | 6.76035 | 128 ft | 9 kts | 170° |
| 2026-05-04 20:46 | 51.28028 | 6.76052 | 127 ft | 13 kts | 186° |
| 2026-05-04 20:47 | 51.27930 | 6.76047 | 128 ft | 16 kts | 180° |
| 2026-05-04 20:47 | 51.27809 | 6.76046 | 127 ft | 18 kts | 180° |
| 2026-05-04 20:47 | 51.27708 | 6.76044 | 128 ft | 11 kts | 181° |
| 2026-05-04 20:47 | 51.27644 | 6.76061 | 128 ft | 3 kts | 133° |
| 2026-05-04 20:48 | 51.27645 | 6.76067 | 126 ft | 0 kts | 94° |
| 2026-05-04 20:48 | 51.27655 | 6.76154 | 129 ft | 6 kts | 79° |
| 2026-05-04 20:48 | 51.27656 | 6.76158 | 127 ft | 1 kts | 79° |
| 2026-05-04 20:48 | 51.27657 | 6.76164 | 127 ft | 0 kts | 76° |